sensor_id;sensor_type;location;lat;lon;timestamp;pressure;altitude;pressure_sealevel;temperature;humidity
12594;BME280;6362;50.208;9.182;2022-07-29T00:01:06;99654.94;;;20.75;46.42
12594;BME280;6362;50.208;9.182;2022-07-29T00:03:31;99653.97;;;20.77;45.97
12594;BME280;6362;50.208;9.182;2022-07-29T00:05:57;99654.78;;;20.79;45.89
12594;BME280;6362;50.208;9.182;2022-07-29T00:08:22;99644.25;;;20.84;45.21
12594;BME280;6362;50.208;9.182;2022-07-29T00:10:48;99641.84;;;20.78;45.47
12594;BME280;6362;50.208;9.182;2022-07-29T00:13:13;99646.84;;;20.84;45.57
12594;BME280;6362;50.208;9.182;2022-07-29T00:15:39;99644.88;;;20.91;45.05
12594;BME280;6362;50.208;9.182;2022-07-29T00:18:04;99645.03;;;20.86;45.15
12594;BME280;6362;50.208;9.182;2022-07-29T00:20:30;99641.41;;;20.92;44.00
12594;BME280;6362;50.208;9.182;2022-07-29T00:22:55;99638.06;;;20.88;45.55
12594;BME280;6362;50.208;9.182;2022-07-29T00:25:21;99640.69;;;20.87;44.62
12594;BME280;6362;50.208;9.182;2022-07-29T00:27:46;99644.06;;;20.89;44.24
12594;BME280;6362;50.208;9.182;2022-07-29T00:30:12;99638.19;;;20.85;45.31
12594;BME280;6362;50.208;9.182;2022-07-29T00:32:37;99634.84;;;20.82;44.74
12594;BME280;6362;50.208;9.182;2022-07-29T00:35:04;99639.06;;;20.84;45.09
12594;BME280;6362;50.208;9.182;2022-07-29T00:37:48;99644.41;;;20.79;46.45
12594;BME280;6362;50.208;9.182;2022-07-29T00:40:13;99649.75;;;20.75;45.08
12594;BME280;6362;50.208;9.182;2022-07-29T00:42:50;99659.28;;;20.74;45.37
12594;BME280;6362;50.208;9.182;2022-07-29T00:45:16;99658.38;;;20.75;46.91
12594;BME280;6362;50.208;9.182;2022-07-29T00:47:42;99660.13;;;20.75;45.36
12594;BME280;6362;50.208;9.182;2022-07-29T00:50:09;99655.78;;;20.75;46.75
12594;BME280;6362;50.208;9.182;2022-07-29T00:52:36;99653.03;;;20.80;46.95
12594;BME280;6362;50.208;9.182;2022-07-29T00:55:05;99649.44;;;20.84;45.32
12594;BME280;6362;50.208;9.182;2022-07-29T00:57:30;99656.31;;;20.85;45.59
12594;BME280;6362;50.208;9.182;2022-07-29T00:59:56;99654.50;;;20.87;44.51
12594;BME280;6362;50.208;9.182;2022-07-29T01:02:22;99662.34;;;20.86;45.30
12594;BME280;6362;50.208;9.182;2022-07-29T01:04:48;99669.16;;;20.88;45.56
12594;BME280;6362;50.208;9.182;2022-07-29T01:07:14;99672.72;;;20.86;45.69
12594;BME280;6362;50.208;9.182;2022-07-29T01:09:40;99677.09;;;20.84;46.39
12594;BME280;6362;50.208;9.182;2022-07-29T01:12:07;99671.31;;;20.75;45.73
12594;BME280;6362;50.208;9.182;2022-07-29T01:14:33;99679.34;;;20.69;46.61
12594;BME280;6362;50.208;9.182;2022-07-29T01:17:03;99681.22;;;20.64;46.43
12594;BME280;6362;50.208;9.182;2022-07-29T01:22:12;99701.25;;;20.59;46.04
12594;BME280;6362;50.208;9.182;2022-07-29T01:25:05;99709.06;;;20.57;46.41
12594;BME280;6362;50.208;9.182;2022-07-29T01:27:40;99712.63;;;20.53;47.42
12594;BME280;6362;50.208;9.182;2022-07-29T01:30:08;99712.84;;;20.47;47.61
12594;BME280;6362;50.208;9.182;2022-07-29T01:32:36;99719.72;;;20.48;48.78
12594;BME280;6362;50.208;9.182;2022-07-29T01:35:06;99718.06;;;20.46;48.96
12594;BME280;6362;50.208;9.182;2022-07-29T01:40:32;99710.72;;;20.33;49.35
12594;BME280;6362;50.208;9.182;2022-07-29T01:43:05;99707.31;;;20.31;49.55
12594;BME280;6362;50.208;9.182;2022-07-29T01:45:37;99705.63;;;20.30;50.26
12594;BME280;6362;50.208;9.182;2022-07-29T01:48:18;99710.06;;;20.27;50.00
12594;BME280;6362;50.208;9.182;2022-07-29T01:51:21;99714.53;;;20.22;51.40
12594;BME280;6362;50.208;9.182;2022-07-29T01:56:26;99708.66;;;20.16;51.40
12594;BME280;6362;50.208;9.182;2022-07-29T01:58:56;99698.28;;;20.16;49.94
12594;BME280;6362;50.208;9.182;2022-07-29T02:01:24;99702.66;;;20.14;49.15
12594;BME280;6362;50.208;9.182;2022-07-29T02:03:50;99700.25;;;20.08;49.81
12594;BME280;6362;50.208;9.182;2022-07-29T02:06:21;99695.03;;;20.10;48.90
12594;BME280;6362;50.208;9.182;2022-07-29T02:08:48;99700.47;;;20.02;50.69
12594;BME280;6362;50.208;9.182;2022-07-29T02:11:15;99701.47;;;19.98;48.96
12594;BME280;6362;50.208;9.182;2022-07-29T02:13:41;99698.88;;;19.98;50.54
12594;BME280;6362;50.208;9.182;2022-07-29T02:16:08;99688.03;;;19.85;48.95
12594;BME280;6362;50.208;9.182;2022-07-29T02:18:36;99688.97;;;19.83;50.36
12594;BME280;6362;50.208;9.182;2022-07-29T02:21:03;99686.34;;;19.84;50.16
12594;BME280;6362;50.208;9.182;2022-07-29T02:23:30;99688.81;;;19.89;49.37
12594;BME280;6362;50.208;9.182;2022-07-29T02:25:57;99682.66;;;19.93;50.68
12594;BME280;6362;50.208;9.182;2022-07-29T02:28:26;99677.31;;;19.98;50.32
12594;BME280;6362;50.208;9.182;2022-07-29T02:30:53;99685.44;;;19.85;48.38
12594;BME280;6362;50.208;9.182;2022-07-29T02:33:21;99670.88;;;19.83;48.87
12594;BME280;6362;50.208;9.182;2022-07-29T02:35:48;99675.19;;;19.82;50.67
12594;BME280;6362;50.208;9.182;2022-07-29T02:38:18;99682.97;;;19.82;50.83
12594;BME280;6362;50.208;9.182;2022-07-29T02:41:05;99680.41;;;19.81;49.80
12594;BME280;6362;50.208;9.182;2022-07-29T02:43:34;99685.69;;;19.78;49.51
12594;BME280;6362;50.208;9.182;2022-07-29T02:46:02;99685.84;;;19.73;50.61
12594;BME280;6362;50.208;9.182;2022-07-29T02:48:37;99690.31;;;19.66;51.23
12594;BME280;6362;50.208;9.182;2022-07-29T02:51:08;99686.09;;;19.64;52.13
12594;BME280;6362;50.208;9.182;2022-07-29T02:53:37;99686.16;;;19.61;54.49
12594;BME280;6362;50.208;9.182;2022-07-29T02:56:10;99686.78;;;19.70;56.64
12594;BME280;6362;50.208;9.182;2022-07-29T02:58:41;99677.22;;;19.72;54.36
12594;BME280;6362;50.208;9.182;2022-07-29T03:01:20;99680.91;;;19.64;50.65
12594;BME280;6362;50.208;9.182;2022-07-29T03:03:48;99670.91;;;19.51;51.17
12594;BME280;6362;50.208;9.182;2022-07-29T03:06:15;99673.75;;;19.42;51.18
12594;BME280;6362;50.208;9.182;2022-07-29T03:08:43;99667.25;;;19.29;52.70
12594;BME280;6362;50.208;9.182;2022-07-29T03:11:10;99667.53;;;19.18;51.42
12594;BME280;6362;50.208;9.182;2022-07-29T03:13:36;99659.03;;;19.14;51.61
12594;BME280;6362;50.208;9.182;2022-07-29T03:16:02;99658.44;;;19.05;51.19
12594;BME280;6362;50.208;9.182;2022-07-29T03:18:30;99651.28;;;19.14;51.66
12594;BME280;6362;50.208;9.182;2022-07-29T03:20:56;99647.13;;;19.09;51.96
12594;BME280;6362;50.208;9.182;2022-07-29T03:23:22;99645.47;;;19.06;51.72
12594;BME280;6362;50.208;9.182;2022-07-29T03:25:52;99643.19;;;18.96;53.21
12594;BME280;6362;50.208;9.182;2022-07-29T03:28:18;99655.38;;;18.90;52.12
12594;BME280;6362;50.208;9.182;2022-07-29T03:30:45;99652.91;;;18.87;53.36
12594;BME280;6362;50.208;9.182;2022-07-29T03:33:11;99644.56;;;18.76;54.08
12594;BME280;6362;50.208;9.182;2022-07-29T03:35:36;99641.88;;;18.81;52.43
12594;BME280;6362;50.208;9.182;2022-07-29T03:38:02;99643.81;;;18.71;54.27
12594;BME280;6362;50.208;9.182;2022-07-29T03:40:39;99650.03;;;18.64;54.48
12594;BME280;6362;50.208;9.182;2022-07-29T03:43:07;99647.28;;;18.70;53.44
12594;BME280;6362;50.208;9.182;2022-07-29T03:45:35;99642.28;;;18.64;54.84
12594;BME280;6362;50.208;9.182;2022-07-29T03:48:05;99635.44;;;18.63;54.09
12594;BME280;6362;50.208;9.182;2022-07-29T03:50:33;99641.88;;;18.46;54.90
12594;BME280;6362;50.208;9.182;2022-07-29T03:52:58;99638.63;;;18.40;55.69
12594;BME280;6362;50.208;9.182;2022-07-29T03:55:26;99634.44;;;18.34;56.28
12594;BME280;6362;50.208;9.182;2022-07-29T03:57:54;99642.31;;;18.29;55.58
12594;BME280;6362;50.208;9.182;2022-07-29T04:00:23;99640.38;;;18.38;54.47
12594;BME280;6362;50.208;9.182;2022-07-29T04:02:49;99635.25;;;18.36;55.99
12594;BME280;6362;50.208;9.182;2022-07-29T04:05:15;99627.47;;;18.38;55.75
12594;BME280;6362;50.208;9.182;2022-07-29T04:07:43;99632.41;;;18.47;55.33
12594;BME280;6362;50.208;9.182;2022-07-29T04:10:09;99626.31;;;18.49;56.37
12594;BME280;6362;50.208;9.182;2022-07-29T04:12:35;99636.63;;;18.49;55.91
12594;BME280;6362;50.208;9.182;2022-07-29T04:15:03;99642.63;;;18.50;56.24
12594;BME280;6362;50.208;9.182;2022-07-29T04:17:28;99637.41;;;18.53;55.07
12594;BME280;6362;50.208;9.182;2022-07-29T04:19:54;99631.06;;;18.65;54.92
12594;BME280;6362;50.208;9.182;2022-07-29T04:22:19;99642.13;;;18.70;54.35
12594;BME280;6362;50.208;9.182;2022-07-29T04:24:45;99639.63;;;18.67;54.05
12594;BME280;6362;50.208;9.182;2022-07-29T04:27:10;99642.22;;;18.67;54.39
12594;BME280;6362;50.208;9.182;2022-07-29T04:29:36;99637.59;;;18.80;53.86
12594;BME280;6362;50.208;9.182;2022-07-29T04:32:01;99631.31;;;18.88;53.69
12594;BME280;6362;50.208;9.182;2022-07-29T04:34:26;99644.25;;;18.88;54.50
12594;BME280;6362;50.208;9.182;2022-07-29T04:36:52;99649.09;;;19.01;53.31
12594;BME280;6362;50.208;9.182;2022-07-29T04:39:17;99634.28;;;19.06;52.88
12594;BME280;6362;50.208;9.182;2022-07-29T04:41:44;99637.59;;;19.11;53.56
12594;BME280;6362;50.208;9.182;2022-07-29T04:44:09;99638.28;;;19.16;51.99
12594;BME280;6362;50.208;9.182;2022-07-29T04:46:35;99645.28;;;19.14;52.64
12594;BME280;6362;50.208;9.182;2022-07-29T04:49:02;99645.19;;;19.17;54.02
12594;BME280;6362;50.208;9.182;2022-07-29T04:51:27;99654.59;;;19.20;52.16
12594;BME280;6362;50.208;9.182;2022-07-29T04:53:53;99657.25;;;19.17;52.51
12594;BME280;6362;50.208;9.182;2022-07-29T04:56:18;99657.41;;;19.12;52.70
12594;BME280;6362;50.208;9.182;2022-07-29T04:58:44;99655.78;;;19.08;53.76
12594;BME280;6362;50.208;9.182;2022-07-29T05:01:09;99654.06;;;19.07;56.13
12594;BME280;6362;50.208;9.182;2022-07-29T05:03:35;99650.59;;;19.09;54.11
12594;BME280;6362;50.208;9.182;2022-07-29T05:06:00;99648.84;;;19.10;53.18
12594;BME280;6362;50.208;9.182;2022-07-29T05:08:25;99637.59;;;19.11;54.08
12594;BME280;6362;50.208;9.182;2022-07-29T05:10:51;99640.88;;;19.16;52.13
12594;BME280;6362;50.208;9.182;2022-07-29T05:13:16;99634.81;;;19.19;52.38
12594;BME280;6362;50.208;9.182;2022-07-29T05:15:42;99635.69;;;19.18;52.18
12594;BME280;6362;50.208;9.182;2022-07-29T05:18:09;99647.72;;;19.19;52.85
12594;BME280;6362;50.208;9.182;2022-07-29T05:20:34;99656.38;;;19.18;52.88
12594;BME280;6362;50.208;9.182;2022-07-29T05:23:00;99661.69;;;19.11;53.04
12594;BME280;6362;50.208;9.182;2022-07-29T05:25:27;99658.38;;;19.08;53.38
12594;BME280;6362;50.208;9.182;2022-07-29T05:27:55;99655.91;;;19.03;54.29
12594;BME280;6362;50.208;9.182;2022-07-29T05:30:21;99656.03;;;18.99;54.47
12594;BME280;6362;50.208;9.182;2022-07-29T05:32:47;99660.41;;;18.97;54.40
12594;BME280;6362;50.208;9.182;2022-07-29T05:35:13;99653.66;;;18.91;55.24
12594;BME280;6362;50.208;9.182;2022-07-29T05:37:39;99656.22;;;18.91;55.17
12594;BME280;6362;50.208;9.182;2022-07-29T05:40:06;99649.16;;;18.98;54.95
12594;BME280;6362;50.208;9.182;2022-07-29T05:42:31;99657.78;;;18.98;54.87
12594;BME280;6362;50.208;9.182;2022-07-29T05:44:57;99651.47;;;19.07;54.16
12594;BME280;6362;50.208;9.182;2022-07-29T05:47:23;99639.22;;;19.13;53.16
12594;BME280;6362;50.208;9.182;2022-07-29T05:49:49;99644.25;;;19.20;53.17
12594;BME280;6362;50.208;9.182;2022-07-29T05:52:15;99645.84;;;19.24;52.81
12594;BME280;6362;50.208;9.182;2022-07-29T05:54:41;99644.59;;;19.37;52.20
12594;BME280;6362;50.208;9.182;2022-07-29T05:57:07;99645.63;;;19.61;52.29
12594;BME280;6362;50.208;9.182;2022-07-29T05:59:37;99643.34;;;19.80;51.92
12594;BME280;6362;50.208;9.182;2022-07-29T06:02:03;99646.47;;;19.90;51.29
12594;BME280;6362;50.208;9.182;2022-07-29T06:04:30;99648.28;;;19.88;51.05
12594;BME280;6362;50.208;9.182;2022-07-29T06:06:56;99648.19;;;19.91;52.09
12594;BME280;6362;50.208;9.182;2022-07-29T06:09:21;99644.56;;;19.96;52.10
12594;BME280;6362;50.208;9.182;2022-07-29T06:11:47;99646.28;;;19.96;52.24
12594;BME280;6362;50.208;9.182;2022-07-29T06:14:13;99641.97;;;19.96;52.49
12594;BME280;6362;50.208;9.182;2022-07-29T06:16:38;99645.84;;;20.10;52.00
12594;BME280;6362;50.208;9.182;2022-07-29T06:19:04;99648.38;;;20.13;52.56
12594;BME280;6362;50.208;9.182;2022-07-29T06:21:29;99658.72;;;20.13;52.45
12594;BME280;6362;50.208;9.182;2022-07-29T06:23:55;99657.19;;;20.06;52.68
12594;BME280;6362;50.208;9.182;2022-07-29T06:26:20;99662.44;;;20.04;53.71
12594;BME280;6362;50.208;9.182;2022-07-29T06:28:46;99656.34;;;20.05;53.52
12594;BME280;6362;50.208;9.182;2022-07-29T06:31:11;99668.34;;;20.08;53.24
12594;BME280;6362;50.208;9.182;2022-07-29T06:33:36;99670.00;;;20.10;53.42
12594;BME280;6362;50.208;9.182;2022-07-29T06:36:04;99668.78;;;20.22;53.17
12594;BME280;6362;50.208;9.182;2022-07-29T06:38:30;99669.47;;;20.54;53.92
12594;BME280;6362;50.208;9.182;2022-07-29T06:40:55;99659.22;;;20.76;52.57
12594;BME280;6362;50.208;9.182;2022-07-29T06:43:38;99664.72;;;20.92;51.90
12594;BME280;6362;50.208;9.182;2022-07-29T06:46:06;99672.63;;;20.87;52.31
12594;BME280;6362;50.208;9.182;2022-07-29T06:48:32;99662.66;;;20.76;52.40
12594;BME280;6362;50.208;9.182;2022-07-29T06:50:58;99667.91;;;20.75;52.29
12594;BME280;6362;50.208;9.182;2022-07-29T06:53:25;99668.91;;;20.71;52.75
12594;BME280;6362;50.208;9.182;2022-07-29T06:55:50;99673.34;;;20.67;53.31
12594;BME280;6362;50.208;9.182;2022-07-29T06:58:16;99659.00;;;20.57;53.35
12594;BME280;6362;50.208;9.182;2022-07-29T07:00:44;99665.94;;;20.56;54.70
12594;BME280;6362;50.208;9.182;2022-07-29T07:03:10;99661.56;;;20.58;54.27
12594;BME280;6362;50.208;9.182;2022-07-29T07:05:35;99665.13;;;20.54;54.53
12594;BME280;6362;50.208;9.182;2022-07-29T07:08:01;99673.03;;;20.50;53.82
12594;BME280;6362;50.208;9.182;2022-07-29T07:10:27;99665.25;;;20.50;54.19
12594;BME280;6362;50.208;9.182;2022-07-29T07:12:52;99670.59;;;20.72;53.51
12594;BME280;6362;50.208;9.182;2022-07-29T07:15:18;99676.44;;;21.02;53.15
12594;BME280;6362;50.208;9.182;2022-07-29T07:17:48;99677.25;;;21.28;52.10
12594;BME280;6362;50.208;9.182;2022-07-29T07:20:14;99671.31;;;21.49;50.99
12594;BME280;6362;50.208;9.182;2022-07-29T07:22:39;99673.50;;;21.60;51.36
12594;BME280;6362;50.208;9.182;2022-07-29T07:25:05;99680.63;;;21.77;50.98
12594;BME280;6362;50.208;9.182;2022-07-29T07:27:31;99674.00;;;21.92;50.58
12594;BME280;6362;50.208;9.182;2022-07-29T07:29:57;99679.19;;;21.92;50.52
12594;BME280;6362;50.208;9.182;2022-07-29T07:32:22;99684.22;;;21.96;49.70
12594;BME280;6362;50.208;9.182;2022-07-29T07:34:48;99681.19;;;21.85;49.86
12594;BME280;6362;50.208;9.182;2022-07-29T07:37:13;99679.44;;;21.86;50.24
12594;BME280;6362;50.208;9.182;2022-07-29T07:39:40;99683.78;;;22.07;50.49
12594;BME280;6362;50.208;9.182;2022-07-29T07:42:05;99680.81;;;22.38;50.30
12594;BME280;6362;50.208;9.182;2022-07-29T07:44:31;99687.06;;;22.75;48.94
12594;BME280;6362;50.208;9.182;2022-07-29T07:46:56;99687.72;;;23.01;47.68
12594;BME280;6362;50.208;9.182;2022-07-29T07:49:22;99683.97;;;23.27;48.18
12594;BME280;6362;50.208;9.182;2022-07-29T07:51:48;99676.38;;;23.41;46.61
12594;BME280;6362;50.208;9.182;2022-07-29T07:54:14;99680.31;;;23.50;46.57
12594;BME280;6362;50.208;9.182;2022-07-29T07:56:39;99674.91;;;23.55;45.42
12594;BME280;6362;50.208;9.182;2022-07-29T07:59:05;99680.91;;;23.38;46.27
12594;BME280;6362;50.208;9.182;2022-07-29T08:01:30;99687.50;;;23.26;46.24
12594;BME280;6362;50.208;9.182;2022-07-29T08:03:55;99692.81;;;23.23;46.88
12594;BME280;6362;50.208;9.182;2022-07-29T08:06:21;99693.25;;;23.33;47.10
12594;BME280;6362;50.208;9.182;2022-07-29T08:08:46;99694.88;;;23.54;47.50
12594;BME280;6362;50.208;9.182;2022-07-29T08:11:12;99702.41;;;23.41;46.77
12594;BME280;6362;50.208;9.182;2022-07-29T08:13:38;99706.09;;;23.56;47.62
12594;BME280;6362;50.208;9.182;2022-07-29T08:16:04;99703.63;;;23.72;47.17
12594;BME280;6362;50.208;9.182;2022-07-29T08:18:36;99702.94;;;23.87;47.86
12594;BME280;6362;50.208;9.182;2022-07-29T08:21:03;99705.31;;;23.92;47.53
12594;BME280;6362;50.208;9.182;2022-07-29T08:23:29;99699.16;;;24.12;47.17
12594;BME280;6362;50.208;9.182;2022-07-29T08:26:04;99706.56;;;24.39;46.29
12594;BME280;6362;50.208;9.182;2022-07-29T08:28:29;99704.28;;;24.67;45.28
12594;BME280;6362;50.208;9.182;2022-07-29T08:30:54;99697.44;;;24.82;44.58
12594;BME280;6362;50.208;9.182;2022-07-29T08:33:20;99704.66;;;25.10;45.70
12594;BME280;6362;50.208;9.182;2022-07-29T08:35:46;99699.56;;;25.09;44.08
12594;BME280;6362;50.208;9.182;2022-07-29T08:38:11;99697.22;;;25.38;43.96
12594;BME280;6362;50.208;9.182;2022-07-29T08:40:36;99697.28;;;25.52;45.05
12594;BME280;6362;50.208;9.182;2022-07-29T08:43:07;99708.19;;;25.76;43.28
12594;BME280;6362;50.208;9.182;2022-07-29T08:45:51;99702.00;;;26.09;44.49
12594;BME280;6362;50.208;9.182;2022-07-29T08:48:22;99703.41;;;26.30;43.38
12594;BME280;6362;50.208;9.182;2022-07-29T08:50:52;99705.97;;;26.62;41.79
12594;BME280;6362;50.208;9.182;2022-07-29T08:53:18;99706.25;;;26.57;40.66
12594;BME280;6362;50.208;9.182;2022-07-29T08:55:46;99700.19;;;26.71;41.87
12594;BME280;6362;50.208;9.182;2022-07-29T08:58:12;99704.03;;;26.80;41.89
12594;BME280;6362;50.208;9.182;2022-07-29T09:00:42;99703.41;;;26.91;41.93
12594;BME280;6362;50.208;9.182;2022-07-29T09:03:09;99697.53;;;27.16;41.81
12594;BME280;6362;50.208;9.182;2022-07-29T09:05:39;99693.03;;;27.18;41.27
12594;BME280;6362;50.208;9.182;2022-07-29T09:08:06;99690.16;;;27.23;40.90
12594;BME280;6362;50.208;9.182;2022-07-29T09:10:32;99692.66;;;27.10;42.21
12594;BME280;6362;50.208;9.182;2022-07-29T09:12:57;99692.28;;;27.16;42.05
12594;BME280;6362;50.208;9.182;2022-07-29T09:15:24;99690.34;;;27.34;42.77
12594;BME280;6362;50.208;9.182;2022-07-29T09:17:50;99696.38;;;27.63;42.31
12594;BME280;6362;50.208;9.182;2022-07-29T09:20:22;99692.84;;;27.91;41.89
12594;BME280;6362;50.208;9.182;2022-07-29T09:22:48;99695.31;;;28.07;41.15
12594;BME280;6362;50.208;9.182;2022-07-29T09:25:35;99690.06;;;28.34;41.33
12594;BME280;6362;50.208;9.182;2022-07-29T09:28:08;99681.53;;;28.58;40.40
12594;BME280;6362;50.208;9.182;2022-07-29T09:30:35;99685.00;;;28.71;39.00
12594;BME280;6362;50.208;9.182;2022-07-29T09:33:02;99671.25;;;28.68;39.61
12594;BME280;6362;50.208;9.182;2022-07-29T09:35:30;99676.59;;;28.53;38.28
12594;BME280;6362;50.208;9.182;2022-07-29T09:37:55;99671.38;;;28.26;38.33
12594;BME280;6362;50.208;9.182;2022-07-29T09:40:26;99673.88;;;28.28;38.70
12594;BME280;6362;50.208;9.182;2022-07-29T09:42:52;99670.13;;;28.32;38.88
12594;BME280;6362;50.208;9.182;2022-07-29T09:45:31;99672.56;;;28.08;38.23
12594;BME280;6362;50.208;9.182;2022-07-29T09:47:58;99674.03;;;28.12;39.06
12594;BME280;6362;50.208;9.182;2022-07-29T09:50:41;99664.94;;;28.17;38.33
12594;BME280;6362;50.208;9.182;2022-07-29T09:53:07;99664.97;;;27.90;39.20
12594;BME280;6362;50.208;9.182;2022-07-29T09:55:49;99668.31;;;28.32;40.17
12594;BME280;6362;50.208;9.182;2022-07-29T09:58:19;99661.56;;;28.68;39.45
12594;BME280;6362;50.208;9.182;2022-07-29T10:00:46;99667.66;;;29.20;38.25
12594;BME280;6362;50.208;9.182;2022-07-29T10:03:12;99661.97;;;29.39;37.44
12594;BME280;6362;50.208;9.182;2022-07-29T10:05:38;99664.75;;;29.85;37.07
12594;BME280;6362;50.208;9.182;2022-07-29T10:08:05;99665.97;;;29.06;37.11
12594;BME280;6362;50.208;9.182;2022-07-29T10:10:33;99660.00;;;29.30;37.61
12594;BME280;6362;50.208;9.182;2022-07-29T10:13:02;99655.16;;;29.23;37.67
12594;BME280;6362;50.208;9.182;2022-07-29T10:15:30;99661.69;;;29.55;37.40
12594;BME280;6362;50.208;9.182;2022-07-29T10:17:58;99658.75;;;29.59;37.51
12594;BME280;6362;50.208;9.182;2022-07-29T10:20:24;99656.38;;;29.67;37.14
12594;BME280;6362;50.208;9.182;2022-07-29T10:22:55;99654.69;;;29.79;36.92
12594;BME280;6362;50.208;9.182;2022-07-29T10:25:22;99651.72;;;29.84;36.33
12594;BME280;6362;50.208;9.182;2022-07-29T10:27:48;99653.03;;;30.38;35.65
12594;BME280;6362;50.208;9.182;2022-07-29T10:30:17;99653.44;;;30.56;33.90
12594;BME280;6362;50.208;9.182;2022-07-29T10:38:27;99646.91;;;30.95;34.43
12594;BME280;6362;50.208;9.182;2022-07-29T10:41:19;99648.56;;;31.52;35.19
12594;BME280;6362;50.208;9.182;2022-07-29T10:44:20;99643.47;;;31.61;32.42
12594;BME280;6362;50.208;9.182;2022-07-29T10:46:46;99646.00;;;31.62;31.96
12594;BME280;6362;50.208;9.182;2022-07-29T10:49:16;99646.41;;;31.24;32.54
12594;BME280;6362;50.208;9.182;2022-07-29T10:57:13;99647.91;;;31.92;32.38
12594;BME280;6362;50.208;9.182;2022-07-29T10:59:44;99638.97;;;32.16;30.83
12594;BME280;6362;50.208;9.182;2022-07-29T11:05:08;99635.50;;;32.36;31.48
12594;BME280;6362;50.208;9.182;2022-07-29T11:07:35;99634.59;;;32.26;31.04
12594;BME280;6362;50.208;9.182;2022-07-29T11:15:22;99636.28;;;31.95;32.26
12594;BME280;6362;50.208;9.182;2022-07-29T11:20:43;99633.50;;;31.76;31.78
12594;BME280;6362;50.208;9.182;2022-07-29T11:26:18;99624.22;;;31.49;33.85
12594;BME280;6362;50.208;9.182;2022-07-29T11:34:16;99630.03;;;33.71;30.12
12594;BME280;6362;50.208;9.182;2022-07-29T11:39:37;99629.53;;;33.87;29.25
12594;BME280;6362;50.208;9.182;2022-07-29T11:45:07;99619.88;;;34.34;29.03
12594;BME280;6362;50.208;9.182;2022-07-29T11:50:34;99611.53;;;34.00;27.18
12594;BME280;6362;50.208;9.182;2022-07-29T11:53:01;99607.09;;;33.81;28.02
12594;BME280;6362;50.208;9.182;2022-07-29T11:55:28;99616.09;;;33.39;28.11
12594;BME280;6362;50.208;9.182;2022-07-29T11:57:56;99608.00;;;33.41;28.50
12594;BME280;6362;50.208;9.182;2022-07-29T12:00:29;99604.59;;;33.70;28.94
12594;BME280;6362;50.208;9.182;2022-07-29T12:02:55;99599.84;;;34.03;29.30
12594;BME280;6362;50.208;9.182;2022-07-29T12:05:31;99602.94;;;34.65;29.36
12594;BME280;6362;50.208;9.182;2022-07-29T12:08:04;99603.25;;;35.17;27.86
12594;BME280;6362;50.208;9.182;2022-07-29T12:10:31;99591.72;;;35.54;27.04
12594;BME280;6362;50.208;9.182;2022-07-29T12:12:57;99594.81;;;35.49;27.78
12594;BME280;6362;50.208;9.182;2022-07-29T12:15:22;99591.56;;;35.10;27.98
12594;BME280;6362;50.208;9.182;2022-07-29T12:17:49;99583.91;;;35.07;28.82
12594;BME280;6362;50.208;9.182;2022-07-29T12:20:35;99578.91;;;34.76;26.56
12594;BME280;6362;50.208;9.182;2022-07-29T12:23:04;99574.09;;;34.89;28.26
12594;BME280;6362;50.208;9.182;2022-07-29T12:25:33;99572.47;;;35.06;29.69
12594;BME280;6362;50.208;9.182;2022-07-29T12:28:01;99571.53;;;35.25;27.50
12594;BME280;6362;50.208;9.182;2022-07-29T12:30:55;99575.84;;;35.44;27.21
12594;BME280;6362;50.208;9.182;2022-07-29T12:33:22;99571.41;;;35.27;25.96
12594;BME280;6362;50.208;9.182;2022-07-29T12:35:53;99576.09;;;35.51;26.67
12594;BME280;6362;50.208;9.182;2022-07-29T12:38:20;99571.47;;;35.71;28.22
12594;BME280;6362;50.208;9.182;2022-07-29T12:40:46;99565.03;;;35.55;26.64
12594;BME280;6362;50.208;9.182;2022-07-29T12:43:17;99560.75;;;34.44;28.01
12594;BME280;6362;50.208;9.182;2022-07-29T12:45:54;99565.00;;;33.97;28.06
12594;BME280;6362;50.208;9.182;2022-07-29T12:48:36;99553.59;;;34.16;27.76
12594;BME280;6362;50.208;9.182;2022-07-29T12:51:04;99556.69;;;34.49;27.87
12594;BME280;6362;50.208;9.182;2022-07-29T12:53:31;99552.25;;;35.05;28.57
12594;BME280;6362;50.208;9.182;2022-07-29T12:55:57;99548.47;;;35.08;27.20
12594;BME280;6362;50.208;9.182;2022-07-29T12:58:35;99551.25;;;35.70;27.10
12594;BME280;6362;50.208;9.182;2022-07-29T13:01:10;99545.09;;;35.87;27.35
12594;BME280;6362;50.208;9.182;2022-07-29T13:03:54;99537.91;;;36.05;27.06
12594;BME280;6362;50.208;9.182;2022-07-29T13:09:04;99531.97;;;36.72;24.53
12594;BME280;6362;50.208;9.182;2022-07-29T13:11:32;99537.31;;;35.94;25.06
12594;BME280;6362;50.208;9.182;2022-07-29T13:13:57;99532.84;;;36.12;25.00
12594;BME280;6362;50.208;9.182;2022-07-29T13:16:23;99538.25;;;35.84;25.37
12594;BME280;6362;50.208;9.182;2022-07-29T13:19:05;99549.63;;;35.59;25.52
12594;BME280;6362;50.208;9.182;2022-07-29T13:21:31;99536.94;;;35.27;26.47
12594;BME280;6362;50.208;9.182;2022-07-29T13:23:57;99533.38;;;35.08;27.20
12594;BME280;6362;50.208;9.182;2022-07-29T13:26:22;99523.38;;;35.65;26.17
12594;BME280;6362;50.208;9.182;2022-07-29T13:28:47;99525.09;;;35.57;25.12
12594;BME280;6362;50.208;9.182;2022-07-29T13:31:13;99530.25;;;35.22;25.96
12594;BME280;6362;50.208;9.182;2022-07-29T13:33:38;99526.41;;;34.52;26.73
12594;BME280;6362;50.208;9.182;2022-07-29T13:36:04;99528.41;;;34.50;26.47
12594;BME280;6362;50.208;9.182;2022-07-29T13:38:29;99521.97;;;34.62;26.71
12594;BME280;6362;50.208;9.182;2022-07-29T13:40:55;99525.03;;;35.13;26.98
12594;BME280;6362;50.208;9.182;2022-07-29T13:43:20;99522.75;;;35.72;25.77
12594;BME280;6362;50.208;9.182;2022-07-29T13:45:46;99518.16;;;36.26;25.01
12594;BME280;6362;50.208;9.182;2022-07-29T13:48:11;99516.81;;;36.04;25.32
12594;BME280;6362;50.208;9.182;2022-07-29T13:50:36;99516.09;;;35.50;24.97
12594;BME280;6362;50.208;9.182;2022-07-29T13:53:02;99519.50;;;35.24;26.17
12594;BME280;6362;50.208;9.182;2022-07-29T13:55:27;99509.88;;;35.23;25.68
12594;BME280;6362;50.208;9.182;2022-07-29T13:57:53;99517.09;;;35.13;26.18
12594;BME280;6362;50.208;9.182;2022-07-29T14:00:18;99515.34;;;34.94;25.75
12594;BME280;6362;50.208;9.182;2022-07-29T14:02:44;99510.09;;;34.56;28.74
12594;BME280;6362;50.208;9.182;2022-07-29T14:05:10;99495.88;;;34.30;28.02